createdAt,value
2019-02-03T00:00:24.096Z,14.70
2019-02-03T00:02:50.931Z,15.97
2019-02-03T00:05:17.790Z,15.13
2019-02-03T00:07:44.611Z,14.43
2019-02-03T00:10:11.451Z,17.37
2019-02-03T00:12:38.291Z,16.17
2019-02-03T00:15:05.854Z,13.93
2019-02-03T00:17:32.703Z,15.07
2019-02-03T00:19:59.570Z,15.73
2019-02-03T00:22:26.398Z,12.30
2019-02-03T00:24:53.246Z,16.25
2019-02-03T00:27:20.082Z,15.73
2019-02-03T00:29:47.014Z,15.07
2019-02-03T00:32:13.859Z,13.47
2019-02-03T00:34:40.722Z,13.40
2019-02-03T00:37:15.251Z,12.77
2019-02-03T00:39:34.467Z,12.47
2019-02-03T00:42:01.346Z,14.87
2019-02-03T00:44:28.161Z,14.20
2019-02-03T00:46:54.991Z,12.53
2019-02-03T00:49:21.837Z,13.43
2019-02-03T00:51:48.675Z,13.07
2019-02-03T00:54:15.525Z,12.50
2019-02-03T00:56:42.359Z,12.00
2019-02-03T00:59:09.219Z,12.87
2019-02-03T01:01:36.065Z,11.13
2019-02-03T01:04:02.916Z,12.13
2019-02-03T01:06:29.751Z,12.40
2019-02-03T01:08:56.599Z,12.53
2019-02-03T01:11:23.466Z,12.50
2019-02-03T01:13:50.290Z,11.93
2019-02-03T01:16:17.142Z,11.80
2019-02-03T01:18:43.991Z,12.50
2019-02-03T01:21:10.827Z,10.93
2019-02-03T01:23:37.662Z,13.25
2019-02-03T01:26:04.511Z,11.70
2019-02-03T01:28:31.342Z,12.27
2019-02-03T01:30:58.203Z,11.80
2019-02-03T01:33:25.030Z,12.70
2019-02-03T01:35:51.882Z,10.80
2019-02-03T01:38:18.720Z,11.03
2019-02-03T01:40:45.562Z,11.57
2019-02-03T01:43:12.383Z,11.70
2019-02-03T01:45:39.234Z,10.60
2019-02-03T01:48:06.074Z,10.70
2019-02-03T01:50:32.930Z,9.60
2019-02-03T01:52:59.758Z,9.30
2019-02-03T01:55:26.615Z,8.57
2019-02-03T01:57:53.454Z,8.93
2019-02-03T02:00:22.258Z,8.20
2019-02-03T02:02:49.081Z,9.93
2019-02-03T02:05:15.918Z,10.55
2019-02-03T02:07:51.138Z,10.90
2019-02-03T02:10:12.191Z,9.90
2019-02-03T02:12:39.010Z,8.80
2019-02-03T02:15:08.091Z,10.15
2019-02-03T02:17:34.950Z,11.28
2019-02-03T02:20:01.811Z,10.80
2019-02-03T02:22:28.642Z,10.75
2019-02-03T02:24:55.485Z,11.30
2019-02-03T02:27:22.314Z,9.10
2019-02-03T02:29:49.199Z,9.53
2019-02-03T02:32:16.030Z,9.00
2019-02-03T02:34:42.877Z,8.53
2019-02-03T02:37:09.721Z,9.27
2019-02-03T02:39:36.547Z,8.87
2019-02-03T02:42:03.398Z,8.90
2019-02-03T02:44:30.216Z,9.40
2019-02-03T02:46:57.063Z,12.20
2019-02-03T02:49:24.070Z,10.70
2019-02-03T02:51:50.926Z,11.83
2019-02-03T02:54:17.761Z,11.60
2019-02-03T02:56:44.595Z,12.23
2019-02-03T02:59:11.425Z,11.40
2019-02-03T03:01:38.278Z,9.90
2019-02-03T03:04:05.094Z,11.50
2019-02-03T03:06:31.954Z,9.83
2019-02-03T03:08:58.781Z,10.20
2019-02-03T03:11:25.631Z,10.60
2019-02-03T03:13:52.466Z,9.60
2019-02-03T03:16:19.317Z,10.60
2019-02-03T03:18:46.162Z,10.87
2019-02-03T03:21:13.187Z,10.57
2019-02-03T03:23:40.022Z,12.00
2019-02-03T03:26:06.870Z,10.23
2019-02-03T03:28:33.695Z,13.50
2019-02-03T03:31:00.564Z,11.87
2019-02-03T03:33:27.390Z,14.98
2019-02-03T03:35:54.243Z,12.60
2019-02-03T03:38:31.634Z,15.18
2019-02-03T03:40:47.922Z,15.43
2019-02-03T03:43:14.746Z,13.20
2019-02-03T03:45:41.593Z,12.30
2019-02-03T03:48:08.426Z,17.12
2019-02-03T03:50:35.285Z,16.35
2019-02-03T03:53:02.110Z,13.57
2019-02-03T03:55:28.951Z,17.25
2019-02-03T03:57:55.778Z,13.40
2019-02-03T04:00:24.001Z,16.85
2019-02-03T04:02:50.898Z,13.23
2019-02-03T04:05:17.721Z,16.70
2019-02-03T04:07:44.565Z,14.00
2019-02-03T04:10:12.070Z,15.85
2019-02-03T04:12:38.911Z,13.63
2019-02-03T04:15:07.123Z,15.98
2019-02-03T04:17:33.997Z,14.30
2019-02-03T04:20:00.795Z,14.90
2019-02-03T04:22:27.646Z,12.60
2019-02-03T04:24:54.470Z,15.60
2019-02-03T04:27:21.306Z,14.17
2019-02-03T04:29:48.126Z,15.70
2019-02-03T04:32:15.070Z,14.40
2019-02-03T04:34:41.897Z,17.20
2019-02-03T04:37:08.759Z,18.45
2019-02-03T04:39:35.627Z,16.83
2019-02-03T04:42:02.485Z,19.67
2019-02-03T04:44:29.317Z,16.50
2019-02-03T04:46:56.158Z,20.05
2019-02-03T04:49:22.990Z,15.47
2019-02-03T04:51:49.829Z,20.23
2019-02-03T04:54:16.660Z,16.57
2019-02-03T04:56:43.506Z,19.77
2019-02-03T04:59:10.335Z,16.63
2019-02-03T05:01:37.182Z,21.42
2019-02-03T05:04:04.069Z,17.47
2019-02-03T05:06:30.922Z,23.47
2019-02-03T05:09:10.398Z,16.97
2019-02-03T05:11:24.634Z,22.40
2019-02-03T05:13:51.471Z,19.17
2019-02-03T05:16:18.403Z,23.50
2019-02-03T05:18:45.237Z,24.10
2019-02-03T05:21:12.078Z,22.47
2019-02-03T05:23:38.926Z,19.77
2019-02-03T05:26:05.781Z,19.13
2019-02-03T05:28:32.636Z,18.33
2019-02-03T05:30:59.480Z,17.37
2019-02-03T05:33:26.322Z,18.20
2019-02-03T05:35:53.157Z,21.12
2019-02-03T05:38:20.019Z,17.00
2019-02-03T05:40:46.859Z,20.10
2019-02-03T05:43:13.737Z,17.00
2019-02-03T05:45:40.566Z,21.37
2019-02-03T05:48:07.410Z,21.48
2019-02-03T05:50:34.239Z,17.03
2019-02-03T05:53:01.100Z,20.70
2019-02-03T05:55:27.932Z,18.00
2019-02-03T05:57:54.773Z,21.87
2019-02-03T06:00:27.793Z,17.87
2019-02-03T06:02:54.639Z,20.40
2019-02-03T06:05:21.466Z,16.20
2019-02-03T06:07:48.312Z,20.02
2019-02-03T06:10:15.869Z,17.00
2019-02-03T06:12:42.714Z,19.25
2019-02-03T06:15:09.712Z,17.53
2019-02-03T06:17:36.866Z,19.17
2019-02-03T06:20:04.086Z,16.57
2019-02-03T06:22:30.946Z,17.60
2019-02-03T06:24:57.794Z,18.53
2019-02-03T06:27:24.670Z,16.33
2019-02-03T06:29:51.539Z,17.27
2019-02-03T06:32:18.391Z,14.17
2019-02-03T06:34:45.217Z,15.30
2019-02-03T06:37:12.040Z,16.47
2019-02-03T06:39:48.214Z,17.40
2019-02-03T06:42:05.743Z,17.90
2019-02-03T06:44:32.586Z,15.37
2019-02-03T06:47:22.577Z,17.10
2019-02-03T06:49:49.426Z,17.70
2019-02-03T06:52:16.252Z,14.07
2019-02-03T06:54:43.102Z,18.42
2019-02-03T06:57:09.933Z,13.87
2019-02-03T06:59:36.779Z,15.55
2019-02-03T07:02:03.622Z,12.70
2019-02-03T07:04:30.462Z,15.60
2019-02-03T07:06:57.289Z,13.90
2019-02-03T07:09:24.142Z,15.40
2019-02-03T07:11:50.979Z,12.60
2019-02-03T07:14:17.813Z,15.85
2019-02-03T07:16:44.646Z,15.23
2019-02-03T07:19:11.489Z,16.82
2019-02-03T07:21:38.312Z,16.35
2019-02-03T07:24:05.167Z,16.20
2019-02-03T07:26:32.025Z,16.48
2019-02-03T07:28:58.874Z,16.25
2019-02-03T07:31:25.706Z,14.63
2019-02-03T07:33:52.563Z,13.33
2019-02-03T07:36:19.394Z,13.20
2019-02-03T07:38:46.235Z,15.30
2019-02-03T07:41:13.071Z,13.80
2019-02-03T07:43:39.918Z,12.43
2019-02-03T07:46:06.742Z,12.63
2019-02-03T07:48:33.570Z,14.13
2019-02-03T07:51:00.422Z,15.32
2019-02-03T07:53:27.256Z,12.67
2019-02-03T07:55:54.182Z,14.60
2019-02-03T07:58:20.996Z,12.30
2019-02-03T08:00:47.845Z,14.20
2019-02-03T08:03:14.670Z,13.40
2019-02-03T08:05:41.532Z,14.47
2019-02-03T08:08:08.359Z,11.90
2019-02-03T08:10:36.351Z,14.20
2019-02-03T08:13:03.221Z,10.43
2019-02-03T08:15:30.090Z,12.20
2019-02-03T08:17:56.985Z,10.00
2019-02-03T08:20:24.010Z,12.10
2019-02-03T08:22:50.836Z,10.00
2019-02-03T08:25:17.684Z,12.10
2019-02-03T08:27:44.534Z,9.60
2019-02-03T08:30:14.244Z,10.10
2019-02-03T08:32:41.074Z,11.00
2019-02-03T08:35:07.926Z,9.57
2019-02-03T08:37:34.798Z,10.90
2019-02-03T08:40:01.673Z,10.03
2019-02-03T08:42:28.499Z,9.40
2019-02-03T08:44:55.350Z,8.40
2019-02-03T08:47:22.197Z,10.50
2019-02-03T08:49:49.122Z,9.03
2019-02-03T08:52:16.011Z,10.30
2019-02-03T08:54:56.795Z,9.33
2019-02-03T08:57:09.803Z,10.10
2019-02-03T08:59:36.638Z,9.90
2019-02-03T09:02:03.584Z,8.37
2019-02-03T09:04:30.402Z,9.40
2019-02-03T09:06:57.848Z,10.30
2019-02-03T09:09:24.086Z,10.57
2019-02-03T09:11:50.934Z,9.00
2019-02-03T09:14:17.905Z,11.30
2019-02-03T09:16:44.766Z,10.63
2019-02-03T09:19:11.670Z,10.20
2019-02-03T09:21:38.596Z,11.05
2019-02-03T09:24:05.420Z,10.97
2019-02-03T09:26:32.382Z,11.83
2019-02-03T09:28:59.241Z,10.17
2019-02-03T09:31:26.086Z,9.00
2019-02-03T09:33:52.918Z,12.25
2019-02-03T09:36:19.770Z,11.83
2019-02-03T09:38:46.594Z,11.05
2019-02-03T09:41:13.522Z,10.93
2019-02-03T09:43:40.362Z,9.90
2019-02-03T09:46:07.217Z,10.68
2019-02-03T09:48:34.148Z,9.83
2019-02-03T09:51:01.025Z,9.40
2019-02-03T09:53:27.862Z,10.30
2019-02-03T09:55:54.907Z,9.60
2019-02-03T09:58:21.743Z,9.60
2019-02-03T10:00:48.621Z,9.87
2019-02-03T10:03:15.502Z,10.63
2019-02-03T10:05:42.347Z,11.95
2019-02-03T10:08:09.189Z,10.47
2019-02-03T10:10:37.287Z,11.60
2019-02-03T10:13:04.661Z,10.67
2019-02-03T10:15:31.610Z,10.53
2019-02-03T10:17:58.450Z,11.70
2019-02-03T10:20:25.362Z,12.23
2019-02-03T10:22:52.135Z,10.83
2019-02-03T10:25:20.198Z,11.53
2019-02-03T10:27:47.199Z,9.53
2019-02-03T10:30:14.204Z,10.50
2019-02-03T10:32:41.128Z,11.00
2019-02-03T10:35:23.124Z,12.40
2019-02-03T10:37:39.369Z,12.10
2019-02-03T10:40:09.240Z,11.37
2019-02-03T10:42:36.158Z,10.23
2019-02-03T10:45:03.037Z,10.43
2019-02-03T10:47:29.885Z,10.63
2019-02-03T10:49:56.779Z,10.47
2019-02-03T10:52:23.633Z,9.90
2019-02-03T10:54:50.675Z,10.53
2019-02-03T10:57:17.530Z,9.67
2019-02-03T10:59:44.399Z,11.30
2019-02-03T11:02:11.251Z,11.63
2019-02-03T11:04:38.220Z,12.95
2019-02-03T11:07:04.949Z,12.27
2019-02-03T11:09:31.790Z,11.40
2019-02-03T11:11:58.649Z,11.20
2019-02-03T11:14:25.486Z,11.20
2019-02-03T11:16:52.375Z,11.73
2019-02-03T11:19:19.218Z,12.13
2019-02-03T11:21:46.085Z,10.70
2019-02-03T11:24:12.915Z,11.33
2019-02-03T11:26:39.819Z,13.05
2019-02-03T11:29:06.658Z,12.40
2019-02-03T11:31:33.514Z,11.77
2019-02-03T11:34:00.383Z,11.77
2019-02-03T11:36:27.291Z,11.87
2019-02-03T11:38:54.151Z,10.20
2019-02-03T11:41:20.978Z,12.60
2019-02-03T11:43:47.851Z,11.17
2019-02-03T11:46:14.766Z,11.50
2019-02-03T11:48:41.621Z,12.50
2019-02-03T11:51:08.477Z,10.90
2019-02-03T11:53:35.327Z,10.77
2019-02-03T11:56:02.182Z,12.27
2019-02-03T11:58:29.038Z,11.23
2019-02-03T12:00:56.774Z,13.30
2019-02-03T12:03:23.629Z,12.30
2019-02-03T12:05:50.485Z,12.60
2019-02-03T12:08:17.391Z,13.20
2019-02-03T12:10:44.243Z,13.60
2019-02-03T12:13:11.107Z,13.23
2019-02-03T12:15:37.998Z,9.90
2019-02-03T12:18:05.086Z,11.77
2019-02-03T12:20:31.934Z,12.07
2019-02-03T12:22:58.796Z,12.20
2019-02-03T12:25:27.460Z,13.70
2019-02-03T12:27:54.314Z,11.93
2019-02-03T12:30:24.422Z,12.83
2019-02-03T12:32:51.286Z,11.57
2019-02-03T12:35:19.669Z,13.07
2019-02-03T12:37:44.997Z,13.07
2019-02-03T12:40:14.450Z,11.50
2019-02-03T12:42:41.294Z,11.63
2019-02-03T12:45:09.166Z,11.77
2019-02-03T12:47:36.054Z,12.80
2019-02-03T12:50:03.382Z,14.75
2019-02-03T12:52:30.574Z,13.30
2019-02-03T12:54:57.466Z,12.30
2019-02-03T12:57:24.363Z,12.63
2019-02-03T12:59:51.238Z,11.10
2019-02-03T13:02:18.070Z,11.53
2019-02-03T13:04:44.936Z,13.03
2019-02-03T13:07:11.795Z,13.23
2019-02-03T13:09:38.663Z,11.27
2019-02-03T13:12:05.514Z,11.37
2019-02-03T13:14:32.379Z,12.47
2019-02-03T13:16:59.221Z,11.40
2019-02-03T13:19:26.086Z,12.90
2019-02-03T13:21:52.922Z,12.63
2019-02-03T13:24:19.783Z,13.10
2019-02-03T13:26:46.643Z,14.18
2019-02-03T13:29:13.504Z,11.43
2019-02-03T13:31:40.347Z,11.63
2019-02-03T13:34:07.247Z,11.93
2019-02-03T13:36:34.098Z,11.00
2019-02-03T13:39:00.954Z,9.90
2019-02-03T13:41:27.807Z,10.67
2019-02-03T13:43:54.667Z,10.70
2019-02-03T13:46:21.518Z,10.27
2019-02-03T13:48:48.470Z,9.67
2019-02-03T13:51:15.340Z,10.43
2019-02-03T13:53:42.182Z,9.73
2019-02-03T13:56:09.010Z,12.00
2019-02-03T13:58:37.517Z,12.88
2019-02-03T14:01:03.582Z,11.40
2019-02-03T14:03:30.446Z,11.77
2019-02-03T14:05:57.298Z,11.93
2019-02-03T14:08:24.130Z,11.67
2019-02-03T14:10:50.986Z,12.70
2019-02-03T14:13:17.822Z,12.30
2019-02-03T14:15:44.691Z,10.50
2019-02-03T14:18:11.520Z,11.47
2019-02-03T14:20:38.421Z,10.20
2019-02-03T14:23:05.218Z,11.20
2019-02-03T14:25:32.058Z,12.15
2019-02-03T14:27:58.891Z,12.35
2019-02-03T14:30:39.201Z,11.30
2019-02-03T14:32:55.061Z,10.80
2019-02-03T14:35:21.955Z,10.00
2019-02-03T14:37:48.786Z,9.80
2019-02-03T14:40:15.984Z,8.83
2019-02-03T14:42:48.049Z,9.40
2019-02-03T14:45:11.403Z,10.83
2019-02-03T14:47:38.247Z,11.60
2019-02-03T14:50:06.639Z,10.63
2019-02-03T14:52:33.463Z,10.90
2019-02-03T14:55:00.332Z,9.03
2019-02-03T14:57:27.170Z,8.77
2019-02-03T14:59:54.031Z,9.63
2019-02-03T15:02:20.871Z,10.07
2019-02-03T15:04:47.730Z,9.00
2019-02-03T15:07:14.715Z,8.60
2019-02-03T15:09:41.574Z,8.00
2019-02-03T15:12:08.408Z,8.30
2019-02-03T15:14:35.253Z,9.13
2019-02-03T15:17:02.091Z,8.10
2019-02-03T15:19:28.926Z,9.90
2019-02-03T15:21:55.774Z,9.50
2019-02-03T15:24:22.615Z,9.33
2019-02-03T15:26:49.479Z,9.23
2019-02-03T15:29:16.326Z,8.20
2019-02-03T15:31:43.206Z,8.17
2019-02-03T15:34:11.686Z,7.33
2019-02-03T15:36:36.866Z,6.30
2019-02-03T15:39:06.522Z,6.33
2019-02-03T15:41:33.386Z,6.77
2019-02-03T15:44:00.214Z,6.13
2019-02-03T15:46:27.066Z,7.70
2019-02-03T15:48:53.892Z,9.10
2019-02-03T15:51:20.739Z,9.43
2019-02-03T15:53:47.574Z,7.87
2019-02-03T15:56:14.522Z,7.80
2019-02-03T15:58:41.352Z,7.47
2019-02-03T16:01:08.208Z,6.20
2019-02-03T16:03:35.045Z,7.13
2019-02-03T16:06:01.902Z,6.87
2019-02-03T16:08:28.739Z,6.23
2019-02-03T16:10:55.606Z,7.25
2019-02-03T16:13:22.520Z,6.13
2019-02-03T16:15:49.311Z,6.40
2019-02-03T16:18:16.175Z,7.70
2019-02-03T16:20:43.045Z,6.33
2019-02-03T16:23:09.898Z,6.17
2019-02-03T16:25:36.747Z,6.10
2019-02-03T16:28:04.197Z,6.70
2019-02-03T16:30:32.544Z,7.15
2019-02-03T16:32:59.379Z,7.40
2019-02-03T16:35:26.271Z,6.57
2019-02-03T16:37:53.200Z,5.83
2019-02-03T16:40:21.893Z,6.20
2019-02-03T16:42:48.811Z,6.50
2019-02-03T16:45:15.710Z,5.72
2019-02-03T16:47:42.616Z,5.07
2019-02-03T16:50:13.086Z,6.20
2019-02-03T16:52:39.893Z,5.70
2019-02-03T16:55:07.859Z,5.90
2019-02-03T16:57:34.798Z,6.10
2019-02-03T17:00:01.652Z,5.90
2019-02-03T17:02:28.485Z,5.30
2019-02-03T17:04:55.322Z,4.70
2019-02-03T17:07:22.174Z,5.70
2019-02-03T17:09:49.154Z,5.10
2019-02-03T17:12:16.019Z,5.30
2019-02-03T17:14:42.851Z,4.72
2019-02-03T17:17:09.750Z,5.33
2019-02-03T17:19:36.600Z,6.40
2019-02-03T17:22:03.455Z,5.23
2019-02-03T17:24:30.339Z,6.08
2019-02-03T17:26:57.208Z,5.30
2019-02-03T17:29:24.045Z,5.80
2019-02-03T17:31:50.970Z,5.10
2019-02-03T17:34:17.923Z,5.67
2019-02-03T17:36:44.787Z,5.40
2019-02-03T17:39:11.637Z,5.60
2019-02-03T17:41:38.574Z,5.70
2019-02-03T17:44:14.814Z,5.45
2019-02-03T17:46:32.680Z,5.90
2019-02-03T17:48:59.555Z,5.53
2019-02-03T17:51:26.421Z,5.00
2019-02-03T17:53:53.344Z,4.70
2019-02-03T17:56:20.210Z,4.60
2019-02-03T17:58:47.058Z,4.60
2019-02-03T18:01:14.730Z,3.30
2019-02-03T18:03:41.586Z,3.77
2019-02-03T18:06:08.430Z,3.83
2019-02-03T18:08:35.299Z,3.57
2019-02-03T18:11:02.134Z,3.50
2019-02-03T18:13:28.981Z,3.58
2019-02-03T18:15:55.877Z,3.50
2019-02-03T18:18:22.835Z,3.35
2019-02-03T18:20:49.825Z,3.27
2019-02-03T18:23:16.776Z,3.60
2019-02-03T18:25:43.625Z,3.02
2019-02-03T18:28:10.495Z,3.47
2019-02-03T18:30:37.538Z,3.50
2019-02-03T18:33:05.197Z,3.63
2019-02-03T18:35:32.081Z,3.07
2019-02-03T18:37:59.023Z,2.90
2019-02-03T18:40:25.863Z,3.40
2019-02-03T18:42:52.749Z,3.30
2019-02-03T18:45:19.767Z,3.33
2019-02-03T18:47:46.687Z,3.47
2019-02-03T18:50:15.690Z,3.23
2019-02-03T18:52:42.551Z,3.00
2019-02-03T18:55:11.850Z,3.80
2019-02-03T18:57:38.710Z,4.50
2019-02-03T19:00:10.260Z,4.42
2019-02-03T19:02:37.177Z,4.60
2019-02-03T19:05:05.798Z,4.50
2019-02-03T19:07:32.729Z,3.92
2019-02-03T19:09:59.586Z,4.37
2019-02-03T19:12:26.537Z,4.40
2019-02-03T19:14:53.369Z,3.70
2019-02-03T19:17:20.242Z,3.50
2019-02-03T19:19:47.098Z,3.37
2019-02-03T19:22:14.036Z,3.93
2019-02-03T19:24:40.994Z,3.83
2019-02-03T19:27:07.834Z,3.93
2019-02-03T19:29:34.729Z,5.30
2019-02-03T19:32:01.686Z,5.00
2019-02-03T19:34:28.579Z,4.30
2019-02-03T19:37:05.187Z,5.00
2019-02-03T19:39:22.291Z,4.40
2019-02-03T19:41:49.150Z,4.83
2019-02-03T19:44:16.010Z,5.17
2019-02-03T19:46:45.058Z,5.73
2019-02-03T19:49:11.911Z,4.93
2019-02-03T19:51:39.258Z,5.33
2019-02-03T19:54:06.137Z,5.20
2019-02-03T19:56:32.979Z,5.50
2019-02-03T19:58:59.950Z,4.93
2019-02-03T20:01:26.819Z,5.10
2019-02-03T20:03:58.035Z,4.90
2019-02-03T20:06:24.949Z,4.47
2019-02-03T20:08:51.794Z,5.37
2019-02-03T20:11:18.649Z,5.60
2019-02-03T20:13:45.524Z,5.30
2019-02-03T20:16:12.362Z,5.37
2019-02-03T20:18:39.220Z,4.90
2019-02-03T20:21:06.486Z,5.33
2019-02-03T20:23:33.325Z,5.60
2019-02-03T20:26:00.163Z,5.47
2019-02-03T20:28:27.102Z,5.30
2019-02-03T20:30:54.290Z,4.80
2019-02-03T20:33:21.479Z,5.27
2019-02-03T20:35:48.314Z,5.00
2019-02-03T20:38:15.174Z,4.67
2019-02-03T20:40:42.454Z,4.30
2019-02-03T20:43:09.306Z,4.43
2019-02-03T20:45:37.968Z,4.73
2019-02-03T20:48:03.090Z,5.03
2019-02-03T20:50:29.927Z,5.93
2019-02-03T20:52:56.758Z,5.87
2019-02-03T20:55:23.650Z,6.00
2019-02-03T20:57:50.507Z,5.77
2019-02-03T21:00:22.006Z,5.67
2019-02-03T21:02:48.903Z,6.08
2019-02-03T21:05:15.750Z,6.10
2019-02-03T21:07:42.590Z,5.70
2019-02-03T21:10:11.139Z,6.37
2019-02-03T21:12:38.014Z,4.90
2019-02-03T21:15:05.930Z,5.10
2019-02-03T21:17:32.757Z,5.57
2019-02-03T21:19:59.599Z,6.30
2019-02-03T21:22:26.518Z,8.10
2019-02-03T21:24:53.371Z,7.87
2019-02-03T21:27:20.202Z,7.62
2019-02-03T21:29:47.095Z,10.93
2019-02-03T21:32:13.906Z,10.23
2019-02-03T21:34:40.786Z,9.00
2019-02-03T21:37:07.638Z,7.78
2019-02-03T21:39:34.527Z,6.23
2019-02-03T21:42:01.370Z,7.07
2019-02-03T21:44:28.221Z,5.90
2019-02-03T21:46:55.062Z,5.70
2019-02-03T21:49:21.926Z,5.53
2019-02-03T21:51:48.814Z,4.70
2019-02-03T21:54:15.661Z,4.70
2019-02-03T21:56:42.490Z,4.00
2019-02-03T21:59:09.355Z,4.60
2019-02-03T22:01:36.175Z,5.10
2019-02-03T22:04:03.014Z,4.90
2019-02-03T22:06:29.871Z,4.17
2019-02-03T22:08:56.694Z,4.70
2019-02-03T22:11:23.551Z,5.60
2019-02-03T22:13:50.383Z,4.97
2019-02-03T22:16:17.230Z,6.58
2019-02-03T22:18:44.060Z,6.03
2019-02-03T22:21:10.915Z,5.50
2019-02-03T22:23:37.738Z,5.40
2019-02-03T22:26:04.594Z,4.97
2019-02-03T22:28:31.439Z,4.83
2019-02-03T22:30:58.329Z,5.15
2019-02-03T22:33:25.154Z,4.60
2019-02-03T22:35:51.989Z,5.55
2019-02-03T22:38:18.822Z,5.77
2019-02-03T22:40:45.726Z,5.10
2019-02-03T22:43:12.550Z,5.03
2019-02-03T22:45:39.398Z,4.77
2019-02-03T22:48:06.529Z,4.75
2019-02-03T22:50:33.387Z,5.50
2019-02-03T22:53:00.214Z,5.10
2019-02-03T22:55:27.079Z,5.10
2019-02-03T22:57:53.930Z,5.20
2019-02-03T23:00:44.582Z,5.97
2019-02-03T23:03:11.417Z,6.47
2019-02-03T23:05:38.397Z,5.27
2019-02-03T23:08:05.102Z,5.60
2019-02-03T23:10:32.089Z,6.00
2019-02-03T23:12:58.929Z,6.33
2019-02-03T23:15:25.841Z,6.17
2019-02-03T23:17:52.706Z,5.70
2019-02-03T23:20:19.538Z,5.33
2019-02-03T23:22:46.394Z,5.70
2019-02-03T23:25:13.222Z,5.97
2019-02-03T23:27:40.183Z,5.10
2019-02-03T23:30:10.338Z,5.53
2019-02-03T23:32:37.183Z,6.12
2019-02-03T23:35:04.090Z,6.37
2019-02-03T23:37:30.938Z,5.90
2019-02-03T23:39:57.839Z,6.53
2019-02-03T23:42:24.681Z,6.40
2019-02-03T23:44:51.509Z,5.20
2019-02-03T23:47:18.361Z,5.40
2019-02-03T23:49:45.194Z,4.67
2019-02-03T23:52:12.050Z,4.50
2019-02-03T23:54:38.881Z,4.40
2019-02-03T23:57:05.745Z,4.30
2019-02-03T23:59:32.582Z,4.73
